Time;durP1;ratioP1;P1;durP2;ratioP2;P2;SDS_P1;SDS_P2;PMS_P1;PMS_P2;Temp;Humidity;BMP_temperature;BMP_pressure;BME280_temperature;BME280_humidity;BME280_pressure;Samples;Min_cycle;Max_cycle;Signal;HPM_P1;HPM_P2
2024/01/04 00:00:33;;;;;;;6.32;0.88;;;;;;;;;;4890148;29;20064;-66
2024/01/04 00:02:59;;;;;;;5.18;0.88;;;;;;;;;;4889997;29;20373;-66
2024/01/04 00:05:25;;;;;;;5.57;0.82;;;;;;;;;;4888657;29;20080;-66
2024/01/04 00:07:51;;;;;;;4.63;0.73;;;;;;;;;;4888858;29;20059;-66
2024/01/04 00:10:17;;;;;;;2.25;0.40;;;;;;;;;;4889556;29;20513;-66
2024/01/04 00:12:51;;;;;;;4.32;0.90;;;;;;;;;;4891041;29;20036;-66
2024/01/04 00:15:18;;;;;;;5.60;0.77;;;;;;;;;;4888703;29;20032;-66
2024/01/04 00:17:44;;;;;;;4.68;0.93;;;;;;;;;;4890507;29;20074;-66
2024/01/04 00:20:10;;;;;;;6.88;0.82;;;;;;;;;;4888883;29;20051;-66
2024/01/04 00:22:36;;;;;;;4.68;0.50;;;;;;;;;;4889649;29;20456;-66
2024/01/04 00:25:02;;;;;;;6.47;0.68;;;;;;;;;;4890005;29;20036;-66
2024/01/04 00:27:29;;;;;;;6.57;0.75;;;;;;;;;;4888628;29;20068;-66
2024/01/04 00:29:55;;;;;;;5.07;0.70;;;;;;;;;;4890466;29;20032;-66
2024/01/04 00:32:21;;;;;;;4.07;0.52;;;;;;;;;;4885268;29;20232;-66
2024/01/04 00:34:47;;;;;;;6.22;0.80;;;;;;;;;;4889877;29;20523;-66
2024/01/04 00:37:13;;;;;;;1.15;0.35;;;;;;;;;;4889971;29;20041;-66
2024/01/04 00:39:39;;;;;;;3.58;0.68;;;;;;;;;;4888694;29;21811;-66
2024/01/04 00:42:05;;;;;;;3.42;0.70;;;;;;;;;;4890006;29;21304;-66
2024/01/04 00:44:31;;;;;;;2.58;0.60;;;;;;;;;;4890125;29;20032;-66
2024/01/04 00:46:57;;;;;;;3.08;0.57;;;;;;;;;;4890891;29;20040;-65
2024/01/04 00:49:23;;;;;;;2.03;0.43;;;;;;;;;;4886189;29;20039;-65
2024/01/04 00:51:50;;;;;;;3.58;0.70;;;;;;;;;;4887045;29;20036;-65
2024/01/04 00:54:16;;;;;;;4.78;1.25;;;;;;;;;;4884846;29;20420;-65
2024/01/04 00:56:42;;;;;;;2.72;0.70;;;;;;;;;;4889183;29;20700;-65
2024/01/04 00:59:08;;;;;;;4.22;0.60;;;;;;;;;;4889546;29;21012;-65
2024/01/04 01:01:34;;;;;;;4.18;0.82;;;;;;;;;;4890296;29;20043;-66
2024/01/04 01:04:01;;;;;;;3.90;0.47;;;;;;;;;;4890254;29;20031;-66
2024/01/04 01:06:27;;;;;;;3.97;0.65;;;;;;;;;;4889226;29;20358;-66
2024/01/04 01:08:53;;;;;;;1.77;0.70;;;;;;;;;;4889115;29;20031;-66
2024/01/04 01:11:19;;;;;;;4.78;0.77;;;;;;;;;;4890796;29;20048;-66
2024/01/04 01:13:45;;;;;;;3.33;0.80;;;;;;;;;;4890135;29;20043;-66
2024/01/04 01:16:11;;;;;;;3.47;0.65;;;;;;;;;;4889303;29;20096;-65
2024/01/04 01:18:38;;;;;;;2.30;0.47;;;;;;;;;;4889690;29;20029;-65
2024/01/04 01:21:04;;;;;;;2.78;0.60;;;;;;;;;;4892623;29;20171;-65
2024/01/04 01:23:31;;;;;;;2.80;0.65;;;;;;;;;;4893299;29;20543;-65
2024/01/04 01:25:57;;;;;;;4.95;1.05;;;;;;;;;;4891282;29;20249;-65
2024/01/04 01:28:23;;;;;;;7.45;0.98;;;;;;;;;;4893317;29;21194;-65
2024/01/04 01:30:49;;;;;;;2.53;0.35;;;;;;;;;;4891829;29;21790;-65
2024/01/04 01:33:15;;;;;;;5.57;0.80;;;;;;;;;;4892724;29;20381;-65
2024/01/04 01:35:41;;;;;;;3.35;0.82;;;;;;;;;;4892374;29;20040;-65
2024/01/04 01:38:07;;;;;;;4.38;0.60;;;;;;;;;;4891134;29;20044;-65
2024/01/04 01:40:33;;;;;;;3.35;0.60;;;;;;;;;;4891817;29;20043;-65
2024/01/04 01:43:00;;;;;;;3.13;0.70;;;;;;;;;;4892214;29;20047;-65
2024/01/04 01:45:26;;;;;;;3.30;0.63;;;;;;;;;;4877200;29;20222;-65
2024/01/04 01:47:52;;;;;;;3.47;0.68;;;;;;;;;;4893106;29;20033;-65
2024/01/04 01:50:20;;;;;;;2.30;0.65;;;;;;;;;;4892185;29;20064;-65
2024/01/04 01:52:47;;;;;;;7.00;1.05;;;;;;;;;;4892035;29;20052;-65
2024/01/04 01:55:17;;;;;;;2.95;0.55;;;;;;;;;;4892082;29;20131;-65
2024/01/04 01:57:43;;;;;;;3.30;0.95;;;;;;;;;;4890746;29;20146;-65
2024/01/04 02:00:13;;;;;;;5.22;0.90;;;;;;;;;;4890951;29;20075;-65
2024/01/04 02:02:39;;;;;;;3.75;0.60;;;;;;;;;;4891949;29;20036;-65
2024/01/04 02:05:07;;;;;;;5.95;0.63;;;;;;;;;;4892286;29;20064;-65
2024/01/04 02:07:33;;;;;;;3.50;0.35;;;;;;;;;;4892026;29;20163;-65
2024/01/04 02:10:00;;;;;;;7.85;0.70;;;;;;;;;;4892074;29;20041;-65
2024/01/04 02:12:26;;;;;;;3.97;0.73;;;;;;;;;;4891407;29;20064;-65
2024/01/04 02:14:54;;;;;;;3.55;0.60;;;;;;;;;;4890720;29;20032;-65
2024/01/04 02:17:21;;;;;;;6.03;0.52;;;;;;;;;;4891246;29;20024;-65
2024/01/04 02:19:47;;;;;;;4.00;0.47;;;;;;;;;;4891483;29;20048;-65
2024/01/04 02:22:14;;;;;;;4.95;0.60;;;;;;;;;;4891867;29;20044;-65
2024/01/04 02:24:40;;;;;;;5.85;0.70;;;;;;;;;;4891671;29;20436;-65
2024/01/04 02:27:06;;;;;;;3.92;0.80;;;;;;;;;;4891853;29;20100;-65
2024/01/04 02:29:32;;;;;;;2.58;0.57;;;;;;;;;;4891482;29;20051;-65
2024/01/04 02:31:58;;;;;;;3.55;0.68;;;;;;;;;;4890790;29;20091;-65
2024/01/04 02:34:24;;;;;;;3.28;0.65;;;;;;;;;;4890492;29;20059;-65
2024/01/04 02:36:51;;;;;;;3.80;0.65;;;;;;;;;;4890557;29;20443;-65
2024/01/04 02:39:17;;;;;;;2.92;0.40;;;;;;;;;;4891009;29;20794;-65
2024/01/04 02:41:43;;;;;;;5.35;0.70;;;;;;;;;;4891440;29;20634;-65
2024/01/04 02:44:09;;;;;;;5.72;0.73;;;;;;;;;;4891031;29;20047;-65
2024/01/04 02:46:35;;;;;;;4.25;0.82;;;;;;;;;;4890432;29;20066;-65
2024/01/04 02:49:01;;;;;;;3.53;0.50;;;;;;;;;;4889805;29;20064;-65
2024/01/04 02:51:27;;;;;;;4.70;0.80;;;;;;;;;;4891375;29;20072;-65
2024/01/04 02:53:53;;;;;;;2.08;0.40;;;;;;;;;;4891222;29;20497;-65
2024/01/04 02:56:19;;;;;;;4.05;0.90;;;;;;;;;;4885309;29;20645;-65
2024/01/04 02:58:45;;;;;;;2.38;0.45;;;;;;;;;;4882791;29;20760;-65
2024/01/04 03:01:11;;;;;;;4.47;0.60;;;;;;;;;;4890500;29;20534;-65
2024/01/04 03:03:38;;;;;;;5.47;1.20;;;;;;;;;;4889186;29;20683;-65
2024/01/04 03:06:04;;;;;;;3.90;0.70;;;;;;;;;;4889546;29;20036;-65
2024/01/04 03:08:30;;;;;;;3.85;0.80;;;;;;;;;;4889541;29;20048;-65
2024/01/04 03:10:56;;;;;;;4.53;0.70;;;;;;;;;;4888195;29;20134;-65
2024/01/04 03:13:22;;;;;;;3.55;0.45;;;;;;;;;;4890862;29;20044;-65
2024/01/04 03:15:48;;;;;;;3.60;0.80;;;;;;;;;;4886433;29;20059;-65
2024/01/04 03:18:14;;;;;;;3.17;0.40;;;;;;;;;;4888243;29;20076;-65
2024/01/04 03:20:40;;;;;;;5.05;0.70;;;;;;;;;;4882024;29;20090;-65
2024/01/04 03:23:06;;;;;;;3.58;0.70;;;;;;;;;;4884641;29;20044;-66
2024/01/04 03:25:32;;;;;;;3.05;0.50;;;;;;;;;;4883201;29;20052;-65
2024/01/04 03:27:58;;;;;;;3.17;0.63;;;;;;;;;;4883060;29;20057;-65
2024/01/04 03:30:24;;;;;;;2.17;0.52;;;;;;;;;;4884122;29;20029;-65
2024/01/04 03:32:50;;;;;;;3.22;1.42;;;;;;;;;;4884257;29;20036;-65
2024/01/04 03:35:16;;;;;;;8.98;0.93;;;;;;;;;;4883594;29;20128;-65
2024/01/04 03:37:42;;;;;;;4.78;0.68;;;;;;;;;;4883505;29;20036;-65
2024/01/04 03:40:09;;;;;;;3.72;0.60;;;;;;;;;;4888294;29;20760;-65
2024/01/04 03:42:35;;;;;;;3.50;0.50;;;;;;;;;;4889588;29;20063;-65
2024/01/04 03:45:01;;;;;;;4.22;0.68;;;;;;;;;;4890702;29;20043;-65
2024/01/04 03:47:27;;;;;;;3.28;0.60;;;;;;;;;;4890853;29;20999;-65
2024/01/04 03:49:53;;;;;;;3.08;0.57;;;;;;;;;;4889990;29;20123;-65
2024/01/04 03:52:19;;;;;;;2.20;0.60;;;;;;;;;;4890787;29;20142;-65
2024/01/04 03:54:45;;;;;;;3.90;0.55;;;;;;;;;;4889900;29;20123;-65
2024/01/04 03:57:11;;;;;;;3.17;0.68;;;;;;;;;;4890317;29;20040;-65
2024/01/04 03:59:37;;;;;;;2.58;0.43;;;;;;;;;;4889755;29;20036;-65
2024/01/04 04:02:03;;;;;;;3.33;0.43;;;;;;;;;;4890716;29;20071;-65
2024/01/04 04:04:30;;;;;;;4.15;0.60;;;;;;;;;;4890834;29;20134;-65
2024/01/04 04:06:56;;;;;;;3.05;0.50;;;;;;;;;;4888398;29;20035;-65
2024/01/04 04:09:22;;;;;;;1.50;0.50;;;;;;;;;;4890109;29;20032;-65
2024/01/04 04:11:49;;;;;;;1.67;0.50;;;;;;;;;;4887230;29;20092;-65
2024/01/04 04:14:16;;;;;;;6.57;0.85;;;;;;;;;;4890503;29;20035;-65
2024/01/04 04:16:42;;;;;;;1.42;0.43;;;;;;;;;;4889581;29;21094;-65
2024/01/04 04:19:09;;;;;;;2.45;0.50;;;;;;;;;;4890034;29;20835;-65
2024/01/04 04:21:35;;;;;;;2.00;0.40;;;;;;;;;;4889120;29;21565;-65
2024/01/04 04:24:01;;;;;;;2.33;0.70;;;;;;;;;;4889262;29;20050;-65
2024/01/04 04:26:27;;;;;;;3.40;0.50;;;;;;;;;;4889337;29;20053;-65
2024/01/04 04:28:53;;;;;;;2.97;0.85;;;;;;;;;;4889901;29;20116;-65
2024/01/04 04:31:19;;;;;;;2.05;0.43;;;;;;;;;;4889727;29;20032;-65
2024/01/04 04:33:46;;;;;;;3.55;0.50;;;;;;;;;;4889844;29;20110;-65
2024/01/04 04:36:12;;;;;;;3.45;0.55;;;;;;;;;;4888965;29;20096;-65
2024/01/04 04:38:38;;;;;;;2.30;0.38;;;;;;;;;;4889103;29;20143;-65
2024/01/04 04:41:05;;;;;;;2.58;0.70;;;;;;;;;;4885474;29;20479;-65
2024/01/04 04:43:34;;;;;;;3.30;0.60;;;;;;;;;;4889410;29;20044;-65
2024/01/04 04:46:02;;;;;;;3.90;0.50;;;;;;;;;;4888841;29;20068;-65
2024/01/04 04:48:28;;;;;;;1.92;0.40;;;;;;;;;;4888863;29;20027;-65
2024/01/04 04:50:54;;;;;;;6.80;0.90;;;;;;;;;;4888519;29;20406;-65
2024/01/04 04:53:21;;;;;;;3.83;1.00;;;;;;;;;;4891033;29;20091;-65
2024/01/04 04:55:47;;;;;;;2.22;0.47;;;;;;;;;;4891610;29;20039;-65
2024/01/04 04:58:13;;;;;;;3.30;0.57;;;;;;;;;;4891822;29;20036;-65
2024/01/04 05:00:39;;;;;;;4.22;0.70;;;;;;;;;;4893534;29;20044;-65
2024/01/04 05:03:05;;;;;;;1.02;0.43;;;;;;;;;;4891967;29;20079;-65
2024/01/04 05:05:33;;;;;;;4.75;0.70;;;;;;;;;;4893051;29;20504;-65
2024/01/04 05:07:59;;;;;;;3.25;0.68;;;;;;;;;;4893036;29;20043;-65
2024/01/04 05:10:25;;;;;;;2.92;0.65;;;;;;;;;;4891936;29;20036;-65
2024/01/04 05:12:51;;;;;;;7.10;0.95;;;;;;;;;;4891863;29;20043;-65
2024/01/04 05:15:18;;;;;;;1.95;0.70;;;;;;;;;;4892407;29;20065;-65
2024/01/04 05:17:44;;;;;;;2.05;0.43;;;;;;;;;;4888799;29;20084;-65
2024/01/04 05:20:12;;;;;;;4.05;0.77;;;;;;;;;;4892796;29;20476;-65
2024/01/04 05:22:39;;;;;;;4.38;0.70;;;;;;;;;;4888449;29;20958;-65
2024/01/04 05:25:05;;;;;;;5.15;0.88;;;;;;;;;;4892785;29;20044;-65
2024/01/04 05:27:31;;;;;;;1.90;0.60;;;;;;;;;;4891794;29;20155;-65
2024/01/04 05:29:57;;;;;;;3.08;0.80;;;;;;;;;;4892683;29;20033;-65
2024/01/04 05:32:23;;;;;;;1.88;0.60;;;;;;;;;;4892746;29;20067;-65
2024/01/04 05:34:49;;;;;;;4.78;0.80;;;;;;;;;;4892636;29;20066;-65
2024/01/04 05:37:15;;;;;;;1.88;0.60;;;;;;;;;;4892252;29;20033;-65
2024/01/04 05:39:42;;;;;;;6.90;1.10;;;;;;;;;;4891927;29;20088;-65
2024/01/04 05:42:08;;;;;;;4.88;0.80;;;;;;;;;;4892409;29;20724;-65
2024/01/04 05:44:34;;;;;;;5.60;1.10;;;;;;;;;;4890668;29;20095;-65
2024/01/04 05:47:00;;;;;;;6.80;1.00;;;;;;;;;;4892626;29;20036;-66
2024/01/04 05:49:26;;;;;;;6.03;0.70;;;;;;;;;;4891991;29;20044;-65
2024/01/04 05:51:52;;;;;;;2.28;0.70;;;;;;;;;;4891575;29;20028;-65
2024/01/04 05:54:18;;;;;;;4.18;0.60;;;;;;;;;;4891388;29;20398;-65
2024/01/04 05:56:44;;;;;;;3.72;0.63;;;;;;;;;;4891261;29;20742;-65
2024/01/04 05:59:10;;;;;;;2.67;0.70;;;;;;;;;;4891653;29;20065;-65
2024/01/04 06:01:38;;;;;;;7.00;0.77;;;;;;;;;;4891065;29;20045;-65
2024/01/04 06:04:05;;;;;;;2.83;0.63;;;;;;;;;;4890397;29;20087;-65
2024/01/04 06:06:31;;;;;;;2.03;0.45;;;;;;;;;;4891694;29;20024;-65
2024/01/04 06:08:57;;;;;;;1.70;0.60;;;;;;;;;;4891564;29;20028;-65
2024/01/04 06:11:23;;;;;;;4.28;0.50;;;;;;;;;;4891158;29;20040;-65
2024/01/04 06:13:49;;;;;;;6.80;0.80;;;;;;;;;;4890406;29;20032;-65
2024/01/04 06:16:18;;;;;;;3.47;0.77;;;;;;;;;;4891044;29;20104;-65
2024/01/04 06:18:44;;;;;;;2.60;0.50;;;;;;;;;;4890585;29;20037;-65
2024/01/04 06:21:10;;;;;;;3.20;0.70;;;;;;;;;;4891162;29;20067;-65
2024/01/04 06:23:36;;;;;;;2.50;0.85;;;;;;;;;;4891165;29;20035;-65
2024/01/04 06:26:02;;;;;;;2.92;0.70;;;;;;;;;;4890180;29;20440;-65
2024/01/04 06:28:28;;;;;;;5.25;0.57;;;;;;;;;;4892170;29;20139;-65
2024/01/04 06:30:54;;;;;;;5.97;0.73;;;;;;;;;;4889533;29;20636;-65
2024/01/04 06:33:20;;;;;;;2.28;0.45;;;;;;;;;;4891284;29;20431;-65
2024/01/04 06:35:46;;;;;;;2.25;0.57;;;;;;;;;;4890911;29;20044;-65
2024/01/04 06:38:13;;;;;;;2.35;0.60;;;;;;;;;;4890915;29;20804;-65
2024/01/04 06:40:39;;;;;;;2.97;0.63;;;;;;;;;;4890747;29;20052;-65
2024/01/04 06:43:09;;;;;;;2.97;0.57;;;;;;;;;;4891011;29;20084;-65
2024/01/04 06:45:38;;;;;;;3.55;0.60;;;;;;;;;;4889237;29;20039;-65
2024/01/04 06:48:05;;;;;;;1.92;0.50;;;;;;;;;;4890782;29;20024;-65
2024/01/04 06:50:31;;;;;;;3.05;0.55;;;;;;;;;;4891306;29;20043;-65
2024/01/04 06:52:57;;;;;;;2.83;0.45;;;;;;;;;;4891034;29;20119;-65
2024/01/04 06:55:23;;;;;;;3.67;0.50;;;;;;;;;;4890060;29;20039;-65
2024/01/04 06:57:49;;;;;;;3.42;0.63;;;;;;;;;;4877226;29;20054;-65
2024/01/04 07:00:16;;;;;;;4.80;0.90;;;;;;;;;;4890719;29;20042;-65
2024/01/04 07:02:42;;;;;;;1.90;0.57;;;;;;;;;;4890291;29;20036;-65
2024/01/04 07:05:11;;;;;;;4.93;0.60;;;;;;;;;;4889864;29;20125;-65
2024/01/04 07:07:37;;;;;;;2.05;0.60;;;;;;;;;;4891077;29;20039;-65
2024/01/04 07:10:03;;;;;;;3.67;0.85;;;;;;;;;;4890785;29;20088;-66
2024/01/04 07:12:29;;;;;;;1.63;0.50;;;;;;;;;;4890525;29;20082;-65
2024/01/04 07:14:56;;;;;;;4.53;1.05;;;;;;;;;;4890144;29;20048;-65
2024/01/04 07:17:22;;;;;;;2.80;0.50;;;;;;;;;;4890186;29;21220;-65
2024/01/04 07:19:49;;;;;;;2.63;0.60;;;;;;;;;;4889774;29;20523;-65
2024/01/04 07:22:19;;;;;;;1.88;0.40;;;;;;;;;;4886752;29;20044;-65
2024/01/04 07:24:46;;;;;;;0.77;0.35;;;;;;;;;;4889052;29;20040;-65
2024/01/04 07:27:12;;;;;;;4.40;0.82;;;;;;;;;;4884743;29;20050;-65
2024/01/04 07:29:38;;;;;;;4.45;0.70;;;;;;;;;;4890217;29;20036;-65
2024/01/04 07:32:04;;;;;;;3.45;0.70;;;;;;;;;;4878904;29;20029;-65
2024/01/04 07:34:32;;;;;;;2.83;0.68;;;;;;;;;;4888750;29;20039;-65
2024/01/04 07:36:58;;;;;;;3.92;1.10;;;;;;;;;;4888358;29;20036;-66
2024/01/04 07:39:26;;;;;;;4.70;1.15;;;;;;;;;;4887273;29;20384;-65
2024/01/04 07:41:52;;;;;;;2.58;0.90;;;;;;;;;;4886847;29;20064;-65
2024/01/04 07:44:18;;;;;;;2.25;0.70;;;;;;;;;;4887949;29;20038;-65
2024/01/04 07:46:45;;;;;;;3.30;0.80;;;;;;;;;;4889235;29;20048;-65
2024/01/04 07:49:11;;;;;;;4.68;0.57;;;;;;;;;;4888196;29;20044;-65
2024/01/04 07:51:38;;;;;;;7.72;0.82;;;;;;;;;;4888260;29;20024;-65
2024/01/04 07:54:04;;;;;;;5.43;1.10;;;;;;;;;;4885302;29;20098;-65
2024/01/04 07:56:30;;;;;;;4.40;0.98;;;;;;;;;;4887794;29;20044;-65
2024/01/04 07:58:56;;;;;;;2.08;0.70;;;;;;;;;;4887919;29;20036;-65
2024/01/04 08:01:23;;;;;;;4.53;0.98;;;;;;;;;;4888262;29;20032;-66
2024/01/04 08:03:49;;;;;;;1.35;0.50;;;;;;;;;;4887306;29;20036;-66
2024/01/04 08:06:15;;;;;;;4.85;1.00;;;;;;;;;;4888288;29;20039;-65
2024/01/04 08:08:41;;;;;;;3.38;0.73;;;;;;;;;;4887712;29;20036;-65
2024/01/04 08:11:08;;;;;;;6.20;0.93;;;;;;;;;;4887475;29;20024;-66
2024/01/04 08:13:34;;;;;;;3.80;0.80;;;;;;;;;;4887608;29;20032;-66
2024/01/04 08:16:01;;;;;;;5.50;0.98;;;;;;;;;;4888517;29;20105;-65
2024/01/04 08:18:27;;;;;;;6.57;1.38;;;;;;;;;;4887584;29;20162;-65
2024/01/04 08:20:53;;;;;;;4.95;1.20;;;;;;;;;;4888524;29;20044;-65
2024/01/04 08:23:19;;;;;;;6.07;1.52;;;;;;;;;;4887353;29;20104;-66
2024/01/04 08:25:46;;;;;;;5.70;1.52;;;;;;;;;;4887834;29;20028;-66
2024/01/04 08:28:12;;;;;;;5.57;1.50;;;;;;;;;;4889561;29;20444;-66
2024/01/04 08:30:38;;;;;;;4.18;1.55;;;;;;;;;;4891292;29;20086;-65
2024/01/04 08:33:05;;;;;;;3.70;1.30;;;;;;;;;;4891409;29;20047;-65
2024/01/04 08:35:31;;;;;;;2.75;1.17;;;;;;;;;;4891932;29;20028;-65
2024/01/04 08:37:57;;;;;;;4.43;1.15;;;;;;;;;;4891620;29;20036;-66
2024/01/04 08:40:23;;;;;;;4.28;1.10;;;;;;;;;;4891607;29;20032;-65
2024/01/04 08:42:49;;;;;;;4.57;1.13;;;;;;;;;;4891583;29;20502;-66
2024/01/04 08:45:15;;;;;;;3.58;0.90;;;;;;;;;;4891139;29;20913;-66
2024/01/04 08:47:41;;;;;;;4.88;1.23;;;;;;;;;;4889954;29;20495;-66
2024/01/04 08:50:07;;;;;;;3.08;1.08;;;;;;;;;;4891278;29;20897;-66
2024/01/04 08:52:33;;;;;;;8.90;1.10;;;;;;;;;;4891064;29;20044;-66
2024/01/04 08:54:59;;;;;;;4.18;2.05;;;;;;;;;;4876408;29;20716;-66
2024/01/04 08:57:26;;;;;;;4.35;1.40;;;;;;;;;;4890751;29;20131;-65
2024/01/04 08:59:52;;;;;;;2.63;1.10;;;;;;;;;;4890771;29;20629;-65
2024/01/04 09:02:18;;;;;;;6.43;1.38;;;;;;;;;;4890648;29;20047;-65
2024/01/04 09:04:44;;;;;;;3.33;1.40;;;;;;;;;;4889964;29;20059;-65
2024/01/04 09:07:12;;;;;;;5.35;1.70;;;;;;;;;;4890524;29;20113;-65
2024/01/04 09:09:40;;;;;;;7.63;1.17;;;;;;;;;;4889746;29;21233;-66
2024/01/04 09:12:06;;;;;;;5.07;1.40;;;;;;;;;;4889858;29;21938;-65
2024/01/04 09:14:32;;;;;;;4.32;1.20;;;;;;;;;;4890732;29;20041;-65
2024/01/04 09:16:59;;;;;;;2.75;1.10;;;;;;;;;;4890402;29;20523;-65
2024/01/04 09:19:25;;;;;;;5.15;1.10;;;;;;;;;;4891203;29;20650;-66
2024/01/04 09:21:51;;;;;;;4.38;1.00;;;;;;;;;;4887015;29;20223;-65
2024/01/04 09:24:18;;;;;;;4.53;0.85;;;;;;;;;;4889453;29;20028;-65
2024/01/04 09:26:45;;;;;;;2.63;0.80;;;;;;;;;;4889179;29;20032;-65
2024/01/04 09:29:11;;;;;;;4.85;0.93;;;;;;;;;;4889976;29;20112;-65
2024/01/04 09:31:37;;;;;;;2.33;0.68;;;;;;;;;;4887558;29;20032;-65
2024/01/04 09:34:04;;;;;;;3.33;0.70;;;;;;;;;;4890243;29;20036;-65
2024/01/04 09:36:31;;;;;;;3.85;0.70;;;;;;;;;;4891183;29;20115;-65
2024/01/04 09:38:57;;;;;;;3.85;1.00;;;;;;;;;;4889094;29;20522;-65
2024/01/04 09:41:24;;;;;;;1.65;0.70;;;;;;;;;;4888773;29;20076;-65
2024/01/04 09:43:54;;;;;;;3.47;1.15;;;;;;;;;;4889837;29;20569;-65
2024/01/04 09:46:21;;;;;;;3.15;1.30;;;;;;;;;;4890083;29;20113;-65
2024/01/04 09:48:51;;;;;;;5.28;1.55;;;;;;;;;;4889498;29;20028;-65
2024/01/04 09:51:18;;;;;;;2.75;1.20;;;;;;;;;;4889672;29;20115;-65
2024/01/04 09:53:44;;;;;;;6.80;1.40;;;;;;;;;;4889894;29;20457;-65
2024/01/04 09:56:14;;;;;;;3.50;1.27;;;;;;;;;;4889491;29;20032;-65
2024/01/04 09:58:40;;;;;;;5.50;1.50;;;;;;;;;;4887631;29;20036;-65
2024/01/04 10:01:07;;;;;;;4.43;1.27;;;;;;;;;;4887776;29;20487;-65
2024/01/04 10:03:34;;;;;;;4.25;0.88;;;;;;;;;;4889081;29;20039;-65
2024/01/04 10:06:02;;;;;;;2.72;0.70;;;;;;;;;;4887804;29;20041;-65
2024/01/04 10:08:34;;;;;;;3.63;1.08;;;;;;;;;;4888814;29;20033;-65
2024/01/04 10:11:02;;;;;;;2.80;0.70;;;;;;;;;;4889825;29;20052;-65
2024/01/04 10:13:30;;;;;;;7.97;3.92;;;;;;;;;;4888694;29;20020;-65
2024/01/04 10:15:56;;;;;;;5.88;2.80;;;;;;;;;;4886140;29;20047;-65
2024/01/04 10:18:23;;;;;;;3.70;1.52;;;;;;;;;;4889285;29;20047;-65
2024/01/04 10:21:03;;;;;;;4.40;1.02;;;;;;;;;;4889649;29;20067;-65
2024/01/04 10:23:29;;;;;;;4.35;1.00;;;;;;;;;;4889166;29;20104;-65
2024/01/04 10:26:05;;;;;;;2.97;0.75;;;;;;;;;;4887801;29;20036;-65
2024/01/04 10:28:31;;;;;;;5.07;0.77;;;;;;;;;;4888848;29;20067;-65
2024/01/04 10:30:57;;;;;;;5.97;1.42;;;;;;;;;;4888264;29;20415;-65
2024/01/04 10:33:23;;;;;;;3.83;0.70;;;;;;;;;;4876312;29;20587;-65
2024/01/04 10:35:49;;;;;;;2.40;0.50;;;;;;;;;;4878219;29;21072;-65
2024/01/04 10:38:15;;;;;;;1.85;0.50;;;;;;;;;;4881590;29;20044;-65
2024/01/04 10:40:41;;;;;;;3.33;0.50;;;;;;;;;;4880075;29;20919;-66
2024/01/04 10:43:08;;;;;;;2.33;0.65;;;;;;;;;;4881549;29;20084;-66
2024/01/04 10:45:34;;;;;;;4.20;0.50;;;;;;;;;;4881136;29;20044;-66
2024/01/04 10:48:00;;;;;;;2.88;0.80;;;;;;;;;;4881043;29;20036;-66
2024/01/04 10:50:27;;;;;;;4.75;0.60;;;;;;;;;;4880708;29;20071;-66
2024/01/04 10:52:57;;;;;;;2.72;0.85;;;;;;;;;;4880408;29;20060;-66
2024/01/04 10:55:24;;;;;;;2.50;0.80;;;;;;;;;;4881049;29;20048;-66
2024/01/04 10:57:52;;;;;;;4.97;0.70;;;;;;;;;;4880772;29;20036;-66
2024/01/04 11:00:19;;;;;;;4.22;0.90;;;;;;;;;;4881405;29;20202;-66
2024/01/04 11:02:46;;;;;;;3.25;0.65;;;;;;;;;;4881065;29;20056;-66
2024/01/04 11:05:12;;;;;;;2.58;0.45;;;;;;;;;;4879905;29;20741;-66
2024/01/04 11:07:39;;;;;;;2.13;0.38;;;;;;;;;;4881650;29;20041;-67
2024/01/04 11:10:05;;;;;;;4.47;0.88;;;;;;;;;;4882212;29;20056;-66
2024/01/04 11:12:32;;;;;;;1.80;0.80;;;;;;;;;;4881705;29;20043;-66
2024/01/04 11:14:58;;;;;;;3.83;0.65;;;;;;;;;;4881431;29;20123;-66
2024/01/04 11:17:28;;;;;;;5.03;0.98;;;;;;;;;;4876825;29;20043;-66
2024/01/04 11:20:13;;;;;;;3.67;0.60;;;;;;;;;;4881040;29;20654;-66
2024/01/04 11:22:57;;;;;;;4.10;0.50;;;;;;;;;;4880580;29;20042;-66
2024/01/04 11:25:34;;;;;;;1.83;0.50;;;;;;;;;;4880453;29;20064;-66
2024/01/04 11:28:01;;;;;;;3.75;0.75;;;;;;;;;;4881429;29;20033;-66
2024/01/04 11:30:28;;;;;;;1.88;0.40;;;;;;;;;;4880592;29;20068;-66
2024/01/04 11:32:54;;;;;;;3.92;0.50;;;;;;;;;;4880670;29;20445;-66
2024/01/04 11:35:23;;;;;;;5.25;0.75;;;;;;;;;;4881554;29;20041;-66
2024/01/04 11:37:52;;;;;;;3.08;0.52;;;;;;;;;;4881529;29;20036;-66
2024/01/04 11:40:29;;;;;;;3.17;0.30;;;;;;;;;;4880685;29;21038;-66
2024/01/04 11:43:00;;;;;;;3.03;0.50;;;;;;;;;;4882111;29;20032;-66
2024/01/04 11:45:26;;;;;;;2.95;0.57;;;;;;;;;;4880679;29;20036;-66
2024/01/04 11:47:52;;;;;;;0.68;0.30;;;;;;;;;;4878795;29;20047;-66
2024/01/04 11:50:18;;;;;;;5.60;0.73;;;;;;;;;;4880679;29;20193;-66
2024/01/04 11:52:45;;;;;;;3.30;0.55;;;;;;;;;;4880479;29;20036;-66
2024/01/04 11:55:12;;;;;;;2.50;0.50;;;;;;;;;;4880382;29;20859;-66
2024/01/04 11:57:39;;;;;;;4.00;0.40;;;;;;;;;;4879727;29;20068;-66
2024/01/04 12:00:15;;;;;;;1.90;0.57;;;;;;;;;;4885758;29;20108;-66
2024/01/04 12:02:41;;;;;;;5.35;0.50;;;;;;;;;;4885059;29;20044;-66
2024/01/04 12:05:08;;;;;;;3.85;0.60;;;;;;;;;;4886660;29;20033;-66
2024/01/04 12:07:35;;;;;;;3.65;0.80;;;;;;;;;;4887096;29;20075;-66
2024/01/04 12:10:01;;;;;;;2.50;0.60;;;;;;;;;;4887589;29;20040;-66
2024/01/04 12:12:27;;;;;;;3.45;0.73;;;;;;;;;;4873154;29;20083;-66
2024/01/04 12:14:53;;;;;;;2.15;0.50;;;;;;;;;;4877618;29;20036;-66
2024/01/04 12:17:19;;;;;;;3.17;0.52;;;;;;;;;;4880804;29;20047;-66
2024/01/04 12:19:47;;;;;;;5.97;1.15;;;;;;;;;;4881777;29;20040;-66
2024/01/04 12:22:13;;;;;;;5.50;0.88;;;;;;;;;;4881804;29;20536;-66
2024/01/04 12:24:42;;;;;;;2.75;0.80;;;;;;;;;;4877589;29;20040;-66
2024/01/04 12:27:08;;;;;;;4.32;1.13;;;;;;;;;;4881767;29;20043;-66
2024/01/04 12:29:34;;;;;;;3.80;0.70;;;;;;;;;;4881406;29;20028;-66
2024/01/04 12:32:04;;;;;;;2.40;0.50;;;;;;;;;;4881108;29;20072;-66
2024/01/04 12:34:30;;;;;;;1.23;0.40;;;;;;;;;;4881881;29;20032;-66
2024/01/04 12:37:06;;;;;;;1.95;0.30;;;;;;;;;;4881854;29;21482;-66
2024/01/04 12:39:33;;;;;;;2.20;0.60;;;;;;;;;;4881682;29;20122;-66
2024/01/04 12:41:59;;;;;;;1.63;0.45;;;;;;;;;;4883337;29;20047;-66
2024/01/04 12:44:25;;;;;;;5.18;0.80;;;;;;;;;;4883544;29;20061;-66
2024/01/04 12:46:52;;;;;;;4.82;1.00;;;;;;;;;;4884486;29;20531;-66
2024/01/04 12:49:18;;;;;;;7.03;0.60;;;;;;;;;;4884352;29;20029;-66
2024/01/04 12:51:44;;;;;;;4.05;0.50;;;;;;;;;;4884193;29;20072;-66
2024/01/04 12:54:11;;;;;;;3.13;0.55;;;;;;;;;;4884159;29;20059;-66
2024/01/04 12:56:37;;;;;;;3.80;0.40;;;;;;;;;;4884049;29;20127;-66
2024/01/04 12:59:04;;;;;;;5.53;1.08;;;;;;;;;;4884209;29;20039;-66
2024/01/04 13:01:33;;;;;;;2.85;0.75;;;;;;;;;;4883631;29;20387;-66
2024/01/04 13:04:00;;;;;;;2.08;0.70;;;;;;;;;;4880546;29;20043;-66
2024/01/04 13:06:26;;;;;;;1.90;0.45;;;;;;;;;;4884662;29;21070;-66
2024/01/04 13:08:54;;;;;;;4.50;0.90;;;;;;;;;;4884449;29;20028;-66
2024/01/04 13:11:21;;;;;;;2.40;0.60;;;;;;;;;;4882991;29;20087;-66
2024/01/04 13:13:50;;;;;;;3.10;0.77;;;;;;;;;;4883998;29;20032;-66
2024/01/04 13:16:16;;;;;;;4.32;0.82;;;;;;;;;;4886544;29;20139;-66
2024/01/04 13:18:42;;;;;;;3.78;0.70;;;;;;;;;;4886872;29;20118;-66
2024/01/04 13:21:08;;;;;;;2.28;0.47;;;;;;;;;;4885593;29;20087;-66
2024/01/04 13:23:34;;;;;;;3.83;0.75;;;;;;;;;;4886493;29;20036;-66
2024/01/04 13:26:00;;;;;;;1.75;0.47;;;;;;;;;;4884579;29;20039;-66
2024/01/04 13:28:27;;;;;;;4.05;0.75;;;;;;;;;;4887395;29;20035;-66
2024/01/04 13:30:54;;;;;;;5.93;0.93;;;;;;;;;;4884590;29;20081;-66
2024/01/04 13:33:20;;;;;;;3.60;0.75;;;;;;;;;;4868137;29;20036;-66
2024/01/04 13:35:46;;;;;;;2.88;0.55;;;;;;;;;;4890314;29;21510;-66
2024/01/04 13:38:12;;;;;;;7.10;1.20;;;;;;;;;;4891886;29;20032;-66
2024/01/04 13:40:39;;;;;;;3.67;0.70;;;;;;;;;;4890586;29;20056;-66
2024/01/04 13:43:05;;;;;;;3.05;0.88;;;;;;;;;;4887606;29;20830;-66
2024/01/04 13:45:31;;;;;;;2.17;0.60;;;;;;;;;;4888754;29;20051;-66
2024/01/04 13:47:57;;;;;;;4.47;0.70;;;;;;;;;;4890207;29;20154;-66
2024/01/04 13:50:23;;;;;;;4.30;0.82;;;;;;;;;;4888909;29;20034;-66
2024/01/04 13:52:49;;;;;;;1.90;0.70;;;;;;;;;;4889669;29;20024;-66
2024/01/04 13:55:16;;;;;;;1.52;0.60;;;;;;;;;;4889645;29;20250;-66
2024/01/04 13:57:42;;;;;;;2.78;0.75;;;;;;;;;;4888659;29;20029;-66
2024/01/04 14:02:47;;;;;;;2.25;0.80;;;;;;;;;;5081777;27;20536;-66
2024/01/04 14:05:15;;;;;;;2.03;0.70;;;;;;;;;;5073397;28;20126;-65
2024/01/04 14:07:41;;;;;;;5.28;0.70;;;;;;;;;;5071713;28;20038;-65
2024/01/04 14:10:08;;;;;;;4.00;0.70;;;;;;;;;;5066172;28;20322;-65
2024/01/04 14:12:34;;;;;;;4.63;1.45;;;;;;;;;;5063463;28;20111;-66
2024/01/04 14:15:01;;;;;;;2.55;0.80;;;;;;;;;;5065694;28;20040;-65
2024/01/04 14:17:27;;;;;;;2.72;0.65;;;;;;;;;;5067113;28;20078;-66
2024/01/04 14:19:53;;;;;;;6.03;0.95;;;;;;;;;;5065027;28;20093;-66
2024/01/04 14:22:19;;;;;;;3.00;0.80;;;;;;;;;;5064099;28;20032;-65
2024/01/04 14:24:45;;;;;;;5.15;0.68;;;;;;;;;;5076183;28;21498;-66
2024/01/04 14:27:12;;;;;;;3.22;0.90;;;;;;;;;;5066095;28;20034;-65
2024/01/04 14:29:39;;;;;;;2.00;0.82;;;;;;;;;;5065979;28;20028;-65
2024/01/04 14:32:05;;;;;;;6.03;1.05;;;;;;;;;;5063271;28;20043;-66
2024/01/04 14:34:31;;;;;;;2.55;0.82;;;;;;;;;;5065196;28;20141;-66
2024/01/04 14:36:58;;;;;;;8.20;1.63;;;;;;;;;;5066153;28;20119;-65
2024/01/04 14:39:24;;;;;;;3.40;0.70;;;;;;;;;;5064898;28;20070;-65
2024/01/04 14:41:51;;;;;;;4.50;1.10;;;;;;;;;;5065211;28;20044;-65